createdAt,value
2022-11-10T00:01:25.659Z,42.30
2022-11-10T00:04:12.186Z,42.77
2022-11-10T00:06:58.765Z,42.33
2022-11-10T00:09:45.136Z,39.00
2022-11-10T00:12:32.986Z,44.70
2022-11-10T00:15:38.304Z,43.50
2022-11-10T00:18:24.655Z,40.17
2022-11-10T00:21:12.906Z,43.23
2022-11-10T00:23:59.011Z,40.73
2022-11-10T00:26:45.587Z,41.43
2022-11-10T00:29:31.963Z,44.40
2022-11-10T00:32:19.734Z,43.87
2022-11-10T00:35:07.799Z,43.87
2022-11-10T00:37:54.331Z,43.90
2022-11-10T00:40:40.735Z,45.93
2022-11-10T00:43:27.938Z,41.37
2022-11-10T00:46:15.682Z,44.10
2022-11-10T00:49:03.393Z,41.30
2022-11-10T00:51:49.956Z,41.43
2022-11-10T00:54:36.286Z,44.00
2022-11-10T00:57:22.675Z,41.00
2022-11-10T01:00:10.608Z,43.53
2022-11-10T01:02:57.251Z,41.93
2022-11-10T01:05:45.690Z,54.70
2022-11-10T01:08:32.173Z,108.27
2022-11-10T01:11:21.290Z,59.50
2022-11-10T01:14:07.879Z,46.30
2022-11-10T01:16:54.303Z,42.40
2022-11-10T01:19:42.932Z,43.33
2022-11-10T01:22:31.335Z,37.40
2022-11-10T01:25:17.718Z,46.60
2022-11-10T01:28:04.495Z,38.23
2022-11-10T01:30:51.095Z,43.17
2022-11-10T01:33:38.047Z,42.70
2022-11-10T01:36:24.457Z,41.87
2022-11-10T01:39:12.122Z,41.50
2022-11-10T01:41:58.651Z,41.20
2022-11-10T01:45:40.160Z,42.67
2022-11-10T01:48:32.755Z,46.47
2022-11-10T01:51:23.750Z,44.30
2022-11-10T01:54:15.072Z,39.47
2022-11-10T01:57:05.151Z,41.20
2022-11-10T01:59:51.911Z,42.83
2022-11-10T02:02:43.358Z,45.97
2022-11-10T02:05:30.618Z,44.07
2022-11-10T02:08:18.916Z,41.03
2022-11-10T02:11:07.112Z,42.23
2022-11-10T02:13:54.619Z,40.03
2022-11-10T02:16:42.719Z,42.70
2022-11-10T02:19:29.434Z,47.03
2022-11-10T02:22:17.214Z,42.97
2022-11-10T02:25:05.379Z,40.50
2022-11-10T02:27:51.980Z,41.90
2022-11-10T02:30:38.068Z,47.33
2022-11-10T02:33:24.603Z,38.37
2022-11-10T02:36:12.050Z,44.17
2022-11-10T02:39:00.000Z,43.33
2022-11-10T02:41:46.394Z,43.80
2022-11-10T02:44:32.873Z,41.70
2022-11-10T02:47:19.367Z,44.60
2022-11-10T02:50:06.255Z,42.27
2022-11-10T02:52:52.615Z,44.43
2022-11-10T02:55:40.503Z,42.87
2022-11-10T02:58:27.090Z,45.33
2022-11-10T03:01:13.820Z,36.10
2022-11-10T03:04:00.369Z,43.17
2022-11-10T03:06:46.901Z,50.80
2022-11-10T03:09:33.403Z,40.17
2022-11-10T03:12:21.327Z,46.87
2022-11-10T03:15:08.784Z,41.17
2022-11-10T03:17:55.667Z,47.30
2022-11-10T03:20:42.228Z,45.00
2022-11-10T03:23:29.770Z,44.87
2022-11-10T03:26:16.278Z,47.50
2022-11-10T03:29:03.888Z,47.27
2022-11-10T03:31:50.299Z,42.33
2022-11-10T03:34:36.765Z,43.73
2022-11-10T03:37:23.346Z,47.30
2022-11-10T03:40:10.707Z,40.47
2022-11-10T03:42:57.182Z,41.33
2022-11-10T03:45:45.520Z,46.73
2022-11-10T03:48:32.160Z,43.97
2022-11-10T03:51:18.927Z,46.67
2022-11-10T03:54:05.444Z,40.97
2022-11-10T03:56:51.815Z,48.77
2022-11-10T03:59:38.241Z,47.97
2022-11-10T04:02:25.998Z,47.03
2022-11-10T04:05:29.494Z,38.43
2022-11-10T04:08:34.804Z,43.03
2022-11-10T04:11:35.786Z,46.93
2022-11-10T04:14:39.869Z,43.00
2022-11-10T04:17:27.811Z,44.20
2022-11-10T04:20:14.392Z,45.20
2022-11-10T04:23:18.872Z,47.13
2022-11-10T04:26:25.215Z,47.10
2022-11-10T04:29:12.898Z,50.97
2022-11-10T04:31:58.935Z,46.70
2022-11-10T04:34:46.557Z,45.67
2022-11-10T04:37:32.816Z,45.67
2022-11-10T04:40:19.255Z,45.20
2022-11-10T04:43:05.716Z,45.13
2022-11-10T04:45:52.274Z,41.93
2022-11-10T04:48:38.460Z,47.77
2022-11-10T04:51:28.749Z,51.97
2022-11-10T04:54:14.917Z,40.97
2022-11-10T04:57:01.423Z,42.73
2022-11-10T04:59:48.134Z,41.23
2022-11-10T05:02:39.432Z,31.33
2022-11-10T05:05:26.057Z,38.60
2022-11-10T05:08:13.875Z,43.50
2022-11-10T05:11:00.448Z,44.17
2022-11-10T05:13:47.294Z,43.23
2022-11-10T05:16:33.755Z,41.23
2022-11-10T05:19:19.996Z,45.20
2022-11-10T05:22:07.652Z,39.57
2022-11-10T05:24:55.655Z,45.07
2022-11-10T05:27:42.341Z,45.80
2022-11-10T05:30:28.673Z,47.00
2022-11-10T05:33:15.393Z,42.13
2022-11-10T05:36:01.999Z,52.80
2022-11-10T05:38:48.575Z,43.00
2022-11-10T05:41:36.389Z,39.57
2022-11-10T05:44:23.019Z,42.27
2022-11-10T05:47:09.913Z,46.30
2022-11-10T05:49:56.236Z,45.33
2022-11-10T05:52:50.047Z,38.00
2022-11-10T05:55:37.592Z,39.27
2022-11-10T05:58:25.436Z,50.83
2022-11-10T06:01:11.618Z,54.80
2022-11-10T06:03:58.033Z,52.60
2022-11-10T06:06:44.506Z,59.87
2022-11-10T06:09:31.063Z,51.70
2022-11-10T06:12:17.327Z,53.20
2022-11-10T06:15:05.789Z,53.30
2022-11-10T06:17:52.597Z,48.90
2022-11-10T06:20:39.250Z,52.67
2022-11-10T06:23:25.995Z,57.40
2022-11-10T06:26:12.287Z,48.13
2022-11-10T06:28:58.789Z,49.77
2022-11-10T06:31:46.374Z,49.80
2022-11-10T06:34:32.974Z,51.90
2022-11-10T06:37:19.207Z,64.37
2022-11-10T06:40:06.621Z,78.70
2022-11-10T06:42:53.172Z,71.43
2022-11-10T06:45:39.913Z,65.57
2022-11-10T06:48:27.756Z,74.70
2022-11-10T06:51:14.246Z,61.13
2022-11-10T06:54:00.753Z,56.13
2022-11-10T06:56:47.267Z,55.70
2022-11-10T06:59:33.857Z,48.50
2022-11-10T07:02:20.721Z,51.67
2022-11-10T07:05:09.152Z,50.30
2022-11-10T07:07:55.187Z,47.37
2022-11-10T07:10:41.801Z,46.67
2022-11-10T07:13:28.369Z,54.73
2022-11-10T07:16:14.796Z,44.80
2022-11-10T07:19:01.306Z,45.80
2022-11-10T07:21:49.244Z,43.57
2022-11-10T07:24:35.891Z,47.93
2022-11-10T07:27:23.131Z,45.40
2022-11-10T07:30:10.606Z,41.57
2022-11-10T07:33:01.483Z,49.93
2022-11-10T07:35:54.167Z,45.73
2022-11-10T07:38:42.000Z,42.20
2022-11-10T07:41:28.484Z,44.03
2022-11-10T07:44:14.947Z,44.90
2022-11-10T07:47:01.334Z,48.90
2022-11-10T07:49:47.809Z,47.63
2022-11-10T07:52:34.601Z,49.40
2022-11-10T07:55:22.407Z,48.07
2022-11-10T07:58:09.780Z,43.50
2022-11-10T08:00:55.867Z,51.00
2022-11-10T08:03:42.799Z,47.37
2022-11-10T08:06:31.125Z,47.53
2022-11-10T08:09:21.185Z,45.37
2022-11-10T08:12:09.170Z,47.27
2022-11-10T08:14:55.598Z,48.17
2022-11-10T08:17:42.034Z,41.43
2022-11-10T08:20:29.158Z,67.87
2022-11-10T08:23:16.577Z,38.00
2022-11-10T08:26:02.820Z,40.77
2022-11-10T08:28:50.308Z,39.53
2022-11-10T08:31:38.167Z,39.37
2022-11-10T08:34:24.578Z,40.07
2022-11-10T08:37:10.750Z,38.30
2022-11-10T08:39:57.355Z,38.90
2022-11-10T08:42:43.822Z,44.30
2022-11-10T08:45:31.670Z,36.10
2022-11-10T08:48:20.292Z,38.83
2022-11-10T08:51:06.720Z,58.77
2022-11-10T08:53:53.153Z,46.57
2022-11-10T08:56:39.572Z,47.43
2022-11-10T08:59:26.175Z,40.33
2022-11-10T09:02:13.764Z,40.00
2022-11-10T09:05:00.337Z,36.07
2022-11-10T09:07:48.437Z,36.23
2022-11-10T09:10:36.866Z,36.80
2022-11-10T09:13:28.135Z,40.67
2022-11-10T09:16:16.717Z,35.77
2022-11-10T09:19:04.673Z,38.17
2022-11-10T09:21:51.200Z,38.13
2022-11-10T09:24:37.652Z,40.70
2022-11-10T09:27:24.245Z,38.27
2022-11-10T09:30:17.416Z,35.67
2022-11-10T09:33:04.752Z,35.80
2022-11-10T09:35:52.634Z,34.17
2022-11-10T09:38:39.239Z,39.93
2022-11-10T09:41:29.817Z,38.60
2022-11-10T09:44:24.866Z,35.73
2022-11-10T09:47:42.511Z,36.77
2022-11-10T09:50:31.981Z,37.00
2022-11-10T09:53:25.748Z,39.07
2022-11-10T09:56:17.678Z,35.93
2022-11-10T09:59:07.724Z,43.53
2022-11-10T10:02:00.586Z,36.90
2022-11-10T10:05:02.965Z,35.50
2022-11-10T10:07:57.975Z,35.33
2022-11-10T10:10:50.060Z,34.00
2022-11-10T10:14:02.301Z,35.37
2022-11-10T10:16:58.082Z,32.33
2022-11-10T10:19:51.855Z,27.60
2022-11-10T10:22:56.889Z,37.20
2022-11-10T10:25:46.875Z,33.07
2022-11-10T10:28:38.647Z,32.50
2022-11-10T10:31:27.569Z,29.83
2022-11-10T10:34:16.857Z,34.00
2022-11-10T10:37:03.419Z,37.00
2022-11-10T10:39:51.423Z,32.10
2022-11-10T10:42:39.875Z,36.20
2022-11-10T10:45:28.916Z,34.67
2022-11-10T10:48:26.424Z,33.37
2022-11-10T10:51:29.075Z,29.83
2022-11-10T10:54:29.748Z,35.53
2022-11-10T10:57:24.476Z,35.67
2022-11-10T11:00:20.829Z,31.60
2022-11-10T11:03:14.655Z,34.90
2022-11-10T11:06:03.058Z,36.17
2022-11-10T11:08:59.678Z,35.87
2022-11-10T11:12:00.188Z,31.90
2022-11-10T11:14:47.076Z,34.00
2022-11-10T11:17:34.843Z,37.10
2022-11-10T11:20:22.009Z,37.47
2022-11-10T11:23:30.264Z,38.07
2022-11-10T11:26:23.351Z,41.37
2022-11-10T11:29:24.795Z,32.13
2022-11-10T11:32:25.733Z,36.30
2022-11-10T11:35:20.956Z,37.30
2022-11-10T11:38:13.773Z,33.90
2022-11-10T11:41:12.969Z,35.60
2022-11-10T11:44:16.373Z,36.27
2022-11-10T11:47:25.094Z,33.40
2022-11-10T11:50:28.502Z,35.47
2022-11-10T11:53:29.716Z,32.53
2022-11-10T11:56:25.199Z,34.13
2022-11-10T11:59:28.506Z,35.03
2022-11-10T12:02:35.672Z,32.53
2022-11-10T12:05:38.193Z,37.47
2022-11-10T12:08:34.551Z,38.97
2022-11-10T12:11:31.007Z,33.87
2022-11-10T12:14:27.957Z,32.57
2022-11-10T12:17:26.156Z,33.70
2022-11-10T12:20:27.617Z,33.73
2022-11-10T12:23:27.588Z,30.33
2022-11-10T12:26:25.684Z,30.80
2022-11-10T12:29:21.390Z,32.07
2022-11-10T12:32:17.632Z,32.50
2022-11-10T12:35:08.483Z,36.13
2022-11-10T12:38:00.843Z,35.53
2022-11-10T12:40:50.772Z,32.80
2022-11-10T12:43:43.426Z,38.20
2022-11-10T12:46:29.620Z,36.77
2022-11-10T12:49:19.406Z,35.83
2022-11-10T12:52:13.719Z,36.77
2022-11-10T12:55:01.336Z,37.43
2022-11-10T12:57:49.743Z,41.27
2022-11-10T13:00:41.215Z,40.10
2022-11-10T13:03:33.262Z,41.27
2022-11-10T13:06:28.403Z,41.73
2022-11-10T13:09:25.107Z,31.60
2022-11-10T13:12:20.222Z,44.77
2022-11-10T13:15:39.816Z,33.90
2022-11-10T13:18:53.587Z,42.70
2022-11-10T13:22:05.585Z,36.97
2022-11-10T13:24:52.182Z,34.40
2022-11-10T13:27:52.637Z,38.07
2022-11-10T13:30:42.093Z,37.47
2022-11-10T13:33:31.846Z,43.00
2022-11-10T13:36:41.391Z,39.17
2022-11-10T13:39:30.887Z,41.07
2022-11-10T13:42:23.806Z,31.87
2022-11-10T13:45:30.944Z,35.50
2022-11-10T13:48:30.923Z,35.63
2022-11-10T13:51:29.090Z,37.50
2022-11-10T13:54:46.572Z,39.80
2022-11-10T13:57:37.824Z,35.10
2022-11-10T14:00:27.299Z,37.17
2022-11-10T14:03:55.636Z,34.20
2022-11-10T14:06:46.505Z,35.60
2022-11-10T14:09:39.477Z,36.10
2022-11-10T14:12:31.998Z,33.30
2022-11-10T14:15:21.370Z,34.10
2022-11-10T14:18:18.334Z,28.50
2022-11-10T14:21:05.936Z,22.03
2022-11-10T14:23:54.771Z,25.50
2022-11-10T14:26:47.779Z,19.53
2022-11-10T14:29:38.341Z,20.17
2022-11-10T14:32:26.088Z,19.23
2022-11-10T14:35:23.610Z,19.90
2022-11-10T14:38:21.011Z,19.27
2022-11-10T14:41:15.496Z,19.93
2022-11-10T14:44:05.744Z,19.70
2022-11-10T14:46:52.496Z,20.70
2022-11-10T14:49:38.696Z,20.97
2022-11-10T14:52:25.425Z,20.00
2022-11-10T14:55:18.147Z,21.47
2022-11-10T14:58:11.379Z,16.63
2022-11-10T15:00:59.841Z,20.10
2022-11-10T15:03:46.205Z,19.77
2022-11-10T15:06:33.499Z,20.37
2022-11-10T15:09:25.084Z,20.47
2022-11-10T15:12:28.081Z,21.47
2022-11-10T15:15:21.641Z,18.60
2022-11-10T15:18:25.847Z,20.73
2022-11-10T15:21:14.033Z,17.43
2022-11-10T15:24:03.107Z,21.37
2022-11-10T15:26:49.857Z,24.10
2022-11-10T15:29:36.278Z,21.47
2022-11-10T15:32:25.488Z,24.57
2022-11-10T15:35:28.678Z,21.00
2022-11-10T15:38:27.852Z,21.63
2022-11-10T15:41:16.807Z,25.67
2022-11-10T15:44:16.933Z,26.30
2022-11-10T15:47:03.143Z,23.07
2022-11-10T15:49:49.679Z,21.37
2022-11-10T15:52:39.461Z,19.73
2022-11-10T15:55:26.138Z,25.07
2022-11-10T15:58:17.025Z,23.53
2022-11-10T16:01:04.553Z,25.70
2022-11-10T16:03:51.013Z,20.00
2022-11-10T16:06:38.253Z,23.17
2022-11-10T16:09:26.376Z,25.60
2022-11-10T16:12:16.923Z,26.50
2022-11-10T16:15:03.730Z,22.67
2022-11-10T16:17:49.989Z,26.07
2022-11-10T16:20:36.711Z,28.43
2022-11-10T16:23:23.531Z,22.70
2022-11-10T16:26:14.570Z,30.07
2022-11-10T16:29:01.319Z,24.07
2022-11-10T16:31:48.059Z,24.47
2022-11-10T16:34:34.506Z,22.57
2022-11-10T16:37:20.745Z,18.07
2022-11-10T16:40:14.544Z,27.30
2022-11-10T16:43:02.440Z,25.27
2022-11-10T16:45:51.151Z,30.83
2022-11-10T16:48:37.886Z,30.80
2022-11-10T16:51:29.674Z,28.30
2022-11-10T16:54:16.259Z,28.00
2022-11-10T16:57:02.775Z,22.10
2022-11-10T16:59:50.536Z,27.97
2022-11-10T17:02:39.404Z,33.60
2022-11-10T17:05:25.775Z,29.70
2022-11-10T17:08:22.149Z,24.90
2022-11-10T17:11:09.339Z,25.13
2022-11-10T17:13:55.725Z,24.27
2022-11-10T17:16:45.320Z,28.07
2022-11-10T17:19:32.089Z,32.57
2022-11-10T17:22:21.324Z,24.53
2022-11-10T17:25:15.086Z,22.67
2022-11-10T17:28:01.611Z,26.93
2022-11-10T17:30:48.014Z,23.10
2022-11-10T17:33:35.864Z,23.87
2022-11-10T17:36:24.401Z,27.73
2022-11-10T17:39:14.787Z,24.10
2022-11-10T17:42:01.829Z,27.30
2022-11-10T17:44:48.291Z,29.17
2022-11-10T17:47:34.744Z,25.80
2022-11-10T17:50:24.813Z,32.87
2022-11-10T17:53:18.846Z,32.03
2022-11-10T17:56:05.459Z,29.80
2022-11-10T17:58:53.453Z,29.10
2022-11-10T18:01:40.196Z,26.93
2022-11-10T18:04:26.539Z,27.00
2022-11-10T18:07:14.419Z,26.23
2022-11-10T18:10:01.075Z,30.73
2022-11-10T18:12:47.668Z,29.50
2022-11-10T18:15:33.906Z,27.33
2022-11-10T18:18:20.432Z,28.13
2022-11-10T18:21:07.874Z,33.60
2022-11-10T18:23:55.476Z,29.40
2022-11-10T18:26:41.928Z,36.00
2022-11-10T18:29:28.518Z,25.77
2022-11-10T18:32:15.281Z,31.27
2022-11-10T18:35:01.310Z,25.40
2022-11-10T18:37:47.900Z,30.50
2022-11-10T18:40:35.709Z,29.87
2022-11-10T18:43:22.644Z,34.30
2022-11-10T18:46:09.186Z,25.07
2022-11-10T18:48:55.620Z,48.53
2022-11-10T18:51:42.541Z,35.80
2022-11-10T18:54:28.789Z,29.13
2022-11-10T18:57:16.733Z,30.20
2022-11-10T19:00:03.834Z,82.53
2022-11-10T19:02:50.166Z,52.67
2022-11-10T19:05:38.533Z,35.60
2022-11-10T19:08:25.947Z,27.40
2022-11-10T19:11:14.640Z,27.37
2022-11-10T19:14:02.650Z,27.93
2022-11-10T19:16:49.345Z,25.70
2022-11-10T19:19:35.921Z,28.10
2022-11-10T19:22:22.441Z,24.63
2022-11-10T19:25:09.575Z,26.97
2022-11-10T19:27:57.013Z,29.87
2022-11-10T19:30:45.541Z,28.20
2022-11-10T19:33:33.008Z,29.73
2022-11-10T19:36:20.651Z,33.50
2022-11-10T19:39:07.515Z,44.30
2022-11-10T19:41:54.002Z,69.30
2022-11-10T19:44:40.589Z,44.70
2022-11-10T19:47:28.552Z,41.77
2022-11-10T19:50:15.152Z,45.00
2022-11-10T19:53:01.696Z,45.53
2022-11-10T19:55:48.299Z,46.30
2022-11-10T19:58:36.679Z,44.03
2022-11-10T20:01:23.005Z,45.20
2022-11-10T20:04:12.438Z,50.10
2022-11-10T20:07:12.666Z,43.87
2022-11-10T20:10:00.216Z,46.47
2022-11-10T20:12:46.403Z,43.93
2022-11-10T20:15:33.056Z,45.47
2022-11-10T20:18:19.586Z,44.27
2022-11-10T20:21:09.221Z,45.63
2022-11-10T20:23:57.048Z,44.87
2022-11-10T20:26:43.310Z,47.63
2022-11-10T20:29:29.805Z,36.27
2022-11-10T20:32:16.365Z,36.10
2022-11-10T20:35:02.901Z,34.07
2022-11-10T20:37:50.781Z,42.23
2022-11-10T20:40:44.307Z,34.40
2022-11-10T20:43:33.334Z,29.83
2022-11-10T20:46:48.149Z,30.37
2022-11-10T20:49:28.224Z,37.00
2022-11-10T20:52:14.599Z,36.43
2022-11-10T20:55:02.537Z,35.03
2022-11-10T20:57:49.088Z,38.57
2022-11-10T21:00:35.576Z,31.43
2022-11-10T21:03:23.484Z,40.10
2022-11-10T21:06:10.860Z,44.23
2022-11-10T21:08:57.207Z,56.60
2022-11-10T21:12:02.596Z,67.57
2022-11-10T21:14:49.154Z,52.43
2022-11-10T21:17:38.116Z,67.93
2022-11-10T21:20:27.896Z,48.03
2022-11-10T21:23:14.457Z,41.83
2022-11-10T21:26:02.078Z,37.33
2022-11-10T21:28:49.872Z,38.77
2022-11-10T21:31:36.479Z,44.63
2022-11-10T21:34:23.090Z,41.37
2022-11-10T21:37:09.557Z,35.80
2022-11-10T21:39:56.383Z,32.90
2022-11-10T21:42:42.653Z,36.03
2022-11-10T21:45:30.441Z,29.13
2022-11-10T21:48:17.239Z,34.13
2022-11-10T21:51:05.948Z,31.37
2022-11-10T21:53:52.393Z,29.20
2022-11-10T21:56:39.072Z,25.90
2022-11-10T21:59:25.507Z,31.77
2022-11-10T22:02:14.707Z,32.10
2022-11-10T22:05:00.957Z,33.20
2022-11-10T22:07:47.497Z,32.60
2022-11-10T22:10:51.769Z,33.33
2022-11-10T22:13:55.694Z,32.40
2022-11-10T22:17:03.333Z,32.73
2022-11-10T22:19:51.232Z,33.33
2022-11-10T22:22:37.761Z,34.57
2022-11-10T22:25:24.448Z,33.00
2022-11-10T22:28:10.675Z,35.30
2022-11-10T22:30:57.271Z,36.03
2022-11-10T22:33:44.514Z,34.33
2022-11-10T22:36:33.580Z,36.40
2022-11-10T22:39:19.936Z,34.97
2022-11-10T22:42:24.219Z,37.87
2022-11-10T22:45:10.892Z,36.90
2022-11-10T22:48:14.985Z,36.20
2022-11-10T22:51:01.716Z,38.07
2022-11-10T22:53:49.766Z,34.30
2022-11-10T22:56:36.256Z,41.20
2022-11-10T22:59:22.685Z,38.10
2022-11-10T23:02:08.992Z,36.73
2022-11-10T23:04:55.722Z,34.97
2022-11-10T23:07:42.298Z,32.83
2022-11-10T23:10:30.263Z,38.30
2022-11-10T23:13:16.816Z,32.53
2022-11-10T23:16:04.518Z,40.53
2022-11-10T23:18:52.335Z,37.60
2022-11-10T23:21:38.900Z,37.83
2022-11-10T23:24:26.113Z,38.03
2022-11-10T23:27:14.127Z,32.57
2022-11-10T23:30:00.963Z,35.93
2022-11-10T23:32:47.663Z,31.00
2022-11-10T23:35:34.354Z,33.17
2022-11-10T23:38:20.659Z,36.00
2022-11-10T23:41:08.951Z,33.30
2022-11-10T23:43:56.727Z,39.23
2022-11-10T23:46:43.398Z,37.27
2022-11-10T23:49:29.914Z,37.67
2022-11-10T23:52:16.339Z,35.80
2022-11-10T23:55:02.922Z,36.20
2022-11-10T23:57:49.439Z,39.97
